createdAt,value
2024-03-24T00:04:13.280Z,99306.45
2024-03-24T00:10:47.080Z,99301.66
2024-03-24T00:16:24.681Z,99294.18
2024-03-24T00:21:52.356Z,99285.22
2024-03-24T00:27:27.647Z,99278.31
2024-03-24T00:32:56.401Z,99275.15
2024-03-24T00:38:53.203Z,99272.15
2024-03-24T00:44:42.414Z,99266.61
2024-03-24T00:50:27.396Z,99259.54
2024-03-24T00:55:43.353Z,99251.29
2024-03-24T01:01:10.303Z,99241.55
2024-03-24T01:06:30.940Z,99238.48
2024-03-24T01:12:27.820Z,99229.54
2024-03-24T01:18:27.238Z,99228.95
2024-03-24T01:23:42.498Z,99221.76
2024-03-24T01:29:15.305Z,99218.18
2024-03-24T01:35:11.082Z,99213.29
2024-03-24T01:40:50.685Z,99209.00
2024-03-24T01:47:18.504Z,99208.52
2024-03-24T01:52:47.869Z,99209.05
2024-03-24T01:58:35.894Z,99208.84
2024-03-24T02:04:43.243Z,99208.20
2024-03-24T02:11:08.033Z,99210.86
2024-03-24T02:16:57.521Z,99213.13
2024-03-24T02:22:41.425Z,99213.91
2024-03-24T02:29:06.738Z,99210.73
2024-03-24T02:34:33.270Z,99209.35
2024-03-24T02:40:15.601Z,99208.03
2024-03-24T02:45:57.353Z,99210.54
2024-03-24T02:52:07.958Z,99203.77
2024-03-24T02:57:42.632Z,99201.02
2024-03-24T03:03:23.179Z,99203.94
2024-03-24T03:09:34.993Z,99205.11
2024-03-24T03:15:57.859Z,99206.58
2024-03-24T03:21:44.292Z,99201.34
2024-03-24T03:27:17.582Z,99203.57
2024-03-24T03:33:42.205Z,99201.40
2024-03-24T03:39:50.603Z,99190.94
2024-03-24T03:45:32.508Z,99188.09
2024-03-24T03:51:09.887Z,99191.77
2024-03-24T03:56:56.303Z,99186.66
2024-03-24T04:03:21.164Z,99194.73
2024-03-24T04:09:20.095Z,99193.15
2024-03-24T04:15:25.879Z,99194.73
2024-03-24T04:21:56.447Z,99189.41
2024-03-24T04:28:22.379Z,99184.59
2024-03-24T04:34:47.936Z,99180.39
2024-03-24T04:41:14.185Z,99181.55
2024-03-24T04:47:21.624Z,99175.53
2024-03-24T04:53:38.179Z,99173.57
2024-03-24T05:00:02.391Z,99167.33
2024-03-24T05:05:32.982Z,99164.14
2024-03-24T05:11:30.135Z,99164.10
2024-03-24T05:17:47.054Z,99169.22
2024-03-24T05:24:13.273Z,99170.22
2024-03-24T05:30:27.583Z,99170.28
2024-03-24T05:36:52.306Z,99177.25
2024-03-24T05:42:39.898Z,99175.03
2024-03-24T05:48:34.691Z,99179.54
2024-03-24T05:54:39.452Z,99186.38
2024-03-24T06:00:17.168Z,99183.02
2024-03-24T06:06:22.488Z,99186.66
2024-03-24T06:12:47.764Z,99192.02
2024-03-24T06:18:53.601Z,99193.29
2024-03-24T06:24:48.934Z,99193.85
2024-03-24T06:31:06.742Z,99194.84
2024-03-24T06:36:34.312Z,99193.92
2024-03-24T06:41:44.002Z,99194.04
2024-03-24T06:46:55.035Z,99197.64
2024-03-24T06:52:43.227Z,99195.55
2024-03-24T06:58:41.186Z,99192.61
2024-03-24T07:04:37.575Z,99197.48
2024-03-24T07:10:55.028Z,99196.92
2024-03-24T07:16:34.030Z,99195.31
2024-03-24T07:21:45.103Z,99194.34
2024-03-24T07:27:07.503Z,99191.41
2024-03-24T07:32:31.194Z,99187.96
2024-03-24T07:38:33.820Z,99190.52
2024-03-24T07:45:05.205Z,99189.73
2024-03-24T07:51:03.097Z,99184.45
2024-03-24T07:56:22.623Z,99176.99
2024-03-24T08:01:55.604Z,99173.43
2024-03-24T08:07:21.295Z,99172.35
2024-03-24T08:12:39.464Z,99175.11
2024-03-24T08:18:46.316Z,99183.83
2024-03-24T08:24:23.832Z,99184.72
2024-03-24T08:30:31.756Z,99176.27
2024-03-24T08:36:36.674Z,99162.92
2024-03-24T08:42:26.345Z,99162.73
2024-03-24T08:47:41.737Z,99157.52
2024-03-24T08:53:15.568Z,99156.66
2024-03-24T08:58:46.074Z,99150.20
2024-03-24T09:04:23.588Z,99149.95
2024-03-24T09:10:50.471Z,99156.81
2024-03-24T09:16:54.527Z,99147.61
2024-03-24T09:23:19.637Z,99142.42
2024-03-24T09:29:25.022Z,99143.03
2024-03-24T09:35:23.473Z,99140.87
2024-03-24T09:41:09.465Z,99133.39
2024-03-24T09:47:06.004Z,99129.29
2024-03-24T09:52:51.276Z,99132.70
2024-03-24T09:58:28.939Z,99127.16
2024-03-24T10:03:56.712Z,99124.44
2024-03-24T10:10:15.905Z,99115.09
2024-03-24T10:16:40.120Z,99100.58
2024-03-24T10:23:06.256Z,99098.79
2024-03-24T10:29:19.461Z,99093.18
2024-03-24T10:35:43.740Z,99081.73
2024-03-24T10:41:19.770Z,99077.20
2024-03-24T10:47:11.318Z,99076.52
2024-03-24T10:53:18.446Z,99072.58
2024-03-24T10:58:25.495Z,99068.20
2024-03-24T11:03:54.759Z,99065.08
2024-03-24T11:09:21.522Z,99060.80
2024-03-24T11:14:50.752Z,99052.95
2024-03-24T11:20:38.184Z,99045.89
2024-03-24T11:26:17.524Z,99041.18
2024-03-24T11:31:58.724Z,99035.59
2024-03-24T11:37:20.644Z,99027.23
2024-03-24T11:43:05.522Z,99028.20
2024-03-24T11:48:53.538Z,99027.69
2024-03-24T11:54:21.111Z,99025.99
2024-03-24T11:59:37.260Z,99018.44
2024-03-24T12:05:46.338Z,99016.55
2024-03-24T12:11:00.984Z,99010.36
2024-03-24T12:16:27.699Z,99015.66
2024-03-24T12:22:18.930Z,99009.83
2024-03-24T12:28:14.824Z,98997.36
2024-03-24T12:33:52.197Z,98984.48
2024-03-24T12:39:39.957Z,98972.52
2024-03-24T12:45:46.382Z,98973.70
2024-03-24T12:51:28.891Z,98961.48
2024-03-24T12:56:59.461Z,98953.95
2024-03-24T13:03:28.193Z,98951.79
2024-03-24T13:09:17.034Z,98944.38
2024-03-24T13:15:04.010Z,98940.34
2024-03-24T13:20:41.916Z,98936.20
2024-03-24T13:26:24.613Z,98927.39
2024-03-24T13:31:52.846Z,98920.76
2024-03-24T13:37:21.741Z,98909.94
2024-03-24T13:43:21.348Z,98915.12
2024-03-24T13:48:38.904Z,98905.83
2024-03-24T13:54:41.865Z,98902.23
2024-03-24T14:00:25.174Z,98891.66
2024-03-24T14:06:07.172Z,98884.16
2024-03-24T14:11:53.807Z,98880.60
2024-03-24T14:18:06.192Z,98883.05
2024-03-24T14:24:05.334Z,98883.73
2024-03-24T14:30:00.527Z,98869.52
2024-03-24T14:35:53.473Z,98868.23
2024-03-24T14:42:23.676Z,98859.21
2024-03-24T14:48:50.446Z,98861.81
2024-03-24T14:54:39.016Z,98862.33
2024-03-24T14:59:56.177Z,98859.02
2024-03-24T15:05:11.095Z,98858.71
2024-03-24T15:10:18.008Z,98873.30
2024-03-24T15:15:56.038Z,98879.18
2024-03-24T15:21:31.020Z,98868.99
2024-03-24T15:27:38.548Z,98862.63
2024-03-24T15:33:09.546Z,98855.22
2024-03-24T15:39:01.387Z,98853.94
2024-03-24T15:45:25.395Z,98850.95
2024-03-24T15:51:43.015Z,98847.13
2024-03-24T15:58:12.047Z,98847.82
2024-03-24T16:04:04.144Z,98850.07
2024-03-24T16:10:22.950Z,98854.56
2024-03-24T16:17:01.770Z,98854.88
2024-03-24T16:23:36.113Z,98851.84
2024-03-24T16:29:28.754Z,98849.41
2024-03-24T16:35:27.860Z,98846.89
2024-03-24T16:41:31.575Z,98845.83
2024-03-24T16:47:44.937Z,98850.30
2024-03-24T16:53:53.892Z,98850.20
2024-03-24T17:00:21.360Z,98854.81
2024-03-24T17:06:38.265Z,98843.90
2024-03-24T17:12:23.279Z,98851.08
2024-03-24T17:19:01.644Z,98860.27
2024-03-24T17:25:15.702Z,98866.79
2024-03-24T17:31:25.222Z,98868.96
2024-03-24T17:37:42.522Z,98877.97
2024-03-24T17:44:03.102Z,98878.14
2024-03-24T17:50:17.156Z,98880.52
2024-03-24T17:56:14.661Z,98883.52
2024-03-24T18:02:07.525Z,98887.39
2024-03-24T18:08:23.653Z,98881.30
2024-03-24T18:14:29.461Z,98885.37
2024-03-24T18:20:13.214Z,98885.58
2024-03-24T18:26:37.828Z,98891.03
2024-03-24T18:32:35.350Z,98889.95
2024-03-24T18:38:22.353Z,98891.89
2024-03-24T18:44:31.402Z,98890.90
2024-03-24T18:50:32.882Z,98895.08
2024-03-24T18:56:57.583Z,98889.68
2024-03-24T19:03:14.618Z,98892.08
2024-03-24T19:09:20.891Z,98893.84
2024-03-24T19:15:45.101Z,98892.23
2024-03-24T19:21:58.436Z,98891.57
2024-03-24T19:28:09.143Z,98882.10
2024-03-24T19:33:58.984Z,98879.17
2024-03-24T19:39:30.266Z,98881.85
2024-03-24T19:45:26.913Z,98883.89
2024-03-24T19:51:31.773Z,98889.49
2024-03-24T19:57:25.251Z,98888.80
2024-03-24T20:03:02.180Z,98888.86
2024-03-24T20:09:19.473Z,98881.50
2024-03-24T20:15:30.594Z,98880.39
2024-03-24T20:21:40.293Z,98876.55
2024-03-24T20:27:38.051Z,98870.34
2024-03-24T20:33:45.563Z,98867.95
2024-03-24T20:39:47.349Z,98861.40
2024-03-24T20:45:37.484Z,98858.33
2024-03-24T20:52:02.729Z,98857.85
2024-03-24T20:58:14.012Z,98855.19
2024-03-24T21:04:39.725Z,98844.86
2024-03-24T21:10:58.579Z,98840.95
2024-03-24T21:17:23.656Z,98834.36
2024-03-24T21:23:45.769Z,98828.10
2024-03-24T21:29:26.234Z,98827.68
2024-03-24T21:35:51.520Z,98821.77
2024-03-24T21:41:24.824Z,98822.36
2024-03-24T21:46:55.757Z,98822.16
2024-03-24T21:53:03.979Z,98824.29
2024-03-24T21:59:12.042Z,98816.73
2024-03-24T22:05:38.118Z,98815.69
2024-03-24T22:12:01.046Z,98807.52
2024-03-24T22:18:24.505Z,98799.42
2024-03-24T22:24:50.829Z,98794.35
2024-03-24T22:30:56.111Z,98789.45
2024-03-24T22:36:44.771Z,98787.70
2024-03-24T22:42:50.111Z,98791.59
2024-03-24T22:49:17.165Z,98786.19
2024-03-24T22:55:22.379Z,98779.70
2024-03-24T23:01:42.260Z,98776.07
2024-03-24T23:07:55.975Z,98776.27
2024-03-24T23:14:20.403Z,98778.63
2024-03-24T23:20:26.285Z,98775.65
2024-03-24T23:26:51.799Z,98772.55
2024-03-24T23:33:03.344Z,98766.89
2024-03-24T23:38:54.998Z,98760.53
2024-03-24T23:45:19.854Z,98760.17
2024-03-24T23:51:44.162Z,98759.36
2024-03-24T23:58:03.778Z,98757.23
